Miami, Florida
Current Conditions -  °F | °C
As of 11:53 PM on Sunday 23 Nov 2014 (Local Time) from KMIA Reporting Station
Broken Clouds Broken Clouds  
Wind Chill: 78°   Ceiling: 25000
Heat Index: 81°   Visibility: 10mi
Dew Point: 74°   Wind: 10mph
Humidity: 87%   Direction: 140°SE
Pressure: 29.96"   Gusts: NA
Location:  25.77°N, 80.19°W
Report Text: KMIA 240453Z 14009KT 10SM FEW020 SCT045 SCT150 BKN250 26/23 A2996 RMK AO2 SLP144 T02560233 402830244
Loading
Personal Weather Stations






























Interactive Weather Map New forecast layout! Learn more

10-Day Weather Forecast

Advertisements
Track Severe Weather on mobile